sensor_id;sensor_type;location;lat;lon;timestamp;pressure;altitude;pressure_sealevel;temperature
54746;BMP180;40640;48.130;11.356;2023-02-13T00:00:46;97388.00;;;3.60
54746;BMP180;40640;48.130;11.356;2023-02-13T00:04:49;97386.00;;;3.70
54746;BMP180;40640;48.130;11.356;2023-02-13T00:08:52;97385.00;;;3.50
54746;BMP180;40640;48.130;11.356;2023-02-13T00:12:56;97377.00;;;3.40
54746;BMP180;40640;48.130;11.356;2023-02-13T00:16:59;97375.00;;;3.50
54746;BMP180;40640;48.130;11.356;2023-02-13T00:21:04;97376.00;;;3.50
54746;BMP180;40640;48.130;11.356;2023-02-13T00:25:11;97366.00;;;3.50
54746;BMP180;40640;48.130;11.356;2023-02-13T00:29:16;97373.00;;;3.50
54746;BMP180;40640;48.130;11.356;2023-02-13T00:33:18;97364.00;;;3.50
54746;BMP180;40640;48.130;11.356;2023-02-13T00:37:21;97361.00;;;3.60
54746;BMP180;40640;48.130;11.356;2023-02-13T00:41:26;97363.00;;;3.80
54746;BMP180;40640;48.130;11.356;2023-02-13T00:45:30;97357.00;;;3.40
54746;BMP180;40640;48.130;11.356;2023-02-13T00:49:32;97356.00;;;3.40
54746;BMP180;40640;48.130;11.356;2023-02-13T00:53:36;97354.00;;;3.50
54746;BMP180;40640;48.130;11.356;2023-02-13T00:57:39;97352.00;;;3.50
54746;BMP180;40640;48.130;11.356;2023-02-13T01:01:45;97352.00;;;3.50
54746;BMP180;40640;48.130;11.356;2023-02-13T01:05:49;97347.00;;;3.50
54746;BMP180;40640;48.130;11.356;2023-02-13T01:09:52;97354.00;;;3.60
54746;BMP180;40640;48.130;11.356;2023-02-13T01:13:55;97356.00;;;3.60
54746;BMP180;40640;48.130;11.356;2023-02-13T01:17:59;97351.00;;;3.90
54746;BMP180;40640;48.130;11.356;2023-02-13T01:22:02;97354.00;;;3.70
54746;BMP180;40640;48.130;11.356;2023-02-13T01:26:06;97357.00;;;3.80
54746;BMP180;40640;48.130;11.356;2023-02-13T01:30:12;97352.00;;;3.70
54746;BMP180;40640;48.130;11.356;2023-02-13T01:34:17;97346.00;;;3.90
54746;BMP180;40640;48.130;11.356;2023-02-13T01:38:20;97344.00;;;3.70
54746;BMP180;40640;48.130;11.356;2023-02-13T01:42:24;97350.00;;;3.80
54746;BMP180;40640;48.130;11.356;2023-02-13T01:46:30;97352.00;;;3.90
54746;BMP180;40640;48.130;11.356;2023-02-13T01:50:42;97346.00;;;3.90
54746;BMP180;40640;48.130;11.356;2023-02-13T01:54:46;97345.00;;;3.80
54746;BMP180;40640;48.130;11.356;2023-02-13T01:58:53;97347.00;;;3.90
54746;BMP180;40640;48.130;11.356;2023-02-13T02:03:01;97335.00;;;3.70
54746;BMP180;40640;48.130;11.356;2023-02-13T02:07:11;97352.00;;;3.70
54746;BMP180;40640;48.130;11.356;2023-02-13T02:11:21;97346.00;;;3.70
54746;BMP180;40640;48.130;11.356;2023-02-13T02:15:25;97354.00;;;3.80
54746;BMP180;40640;48.130;11.356;2023-02-13T02:19:45;97355.00;;;3.90
54746;BMP180;40640;48.130;11.356;2023-02-13T02:24:23;97364.00;;;4.00
54746;BMP180;40640;48.130;11.356;2023-02-13T02:29:01;97355.00;;;3.90
54746;BMP180;40640;48.130;11.356;2023-02-13T02:33:17;97349.00;;;3.80
54746;BMP180;40640;48.130;11.356;2023-02-13T02:37:35;97347.00;;;3.80
54746;BMP180;40640;48.130;11.356;2023-02-13T02:41:53;97343.00;;;3.90
54746;BMP180;40640;48.130;11.356;2023-02-13T02:46:05;97355.00;;;3.80
54746;BMP180;40640;48.130;11.356;2023-02-13T02:50:22;97358.00;;;3.90
54746;BMP180;40640;48.130;11.356;2023-02-13T02:54:29;97345.00;;;3.80
54746;BMP180;40640;48.130;11.356;2023-02-13T02:58:55;97352.00;;;3.70
54746;BMP180;40640;48.130;11.356;2023-02-13T03:03:19;97351.00;;;4.00
54746;BMP180;40640;48.130;11.356;2023-02-13T03:07:42;97349.00;;;3.90
54746;BMP180;40640;48.130;11.356;2023-02-13T03:11:48;97344.00;;;3.90
54746;BMP180;40640;48.130;11.356;2023-02-13T03:16:11;97348.00;;;3.70
54746;BMP180;40640;48.130;11.356;2023-02-13T03:20:47;97346.00;;;3.70
54746;BMP180;40640;48.130;11.356;2023-02-13T03:25:16;97339.00;;;3.80
54746;BMP180;40640;48.130;11.356;2023-02-13T03:29:44;97352.00;;;3.80
54746;BMP180;40640;48.130;11.356;2023-02-13T03:34:07;97354.00;;;3.70
54746;BMP180;40640;48.130;11.356;2023-02-13T03:38:16;97350.00;;;3.70
54746;BMP180;40640;48.130;11.356;2023-02-13T03:42:26;97353.00;;;3.80
54746;BMP180;40640;48.130;11.356;2023-02-13T03:46:33;97356.00;;;3.80
54746;BMP180;40640;48.130;11.356;2023-02-13T03:50:40;97356.00;;;3.60
54746;BMP180;40640;48.130;11.356;2023-02-13T03:54:47;97354.00;;;3.60
54746;BMP180;40640;48.130;11.356;2023-02-13T03:59:17;97350.00;;;3.40
54746;BMP180;40640;48.130;11.356;2023-02-13T04:03:26;97353.00;;;3.60
54746;BMP180;40640;48.130;11.356;2023-02-13T04:07:30;97367.00;;;3.70
54746;BMP180;40640;48.130;11.356;2023-02-13T04:11:36;97359.00;;;3.60
54746;BMP180;40640;48.130;11.356;2023-02-13T04:15:45;97360.00;;;3.50
54746;BMP180;40640;48.130;11.356;2023-02-13T04:19:50;97367.00;;;3.30
54746;BMP180;40640;48.130;11.356;2023-02-13T04:23:53;97362.00;;;3.10
54746;BMP180;40640;48.130;11.356;2023-02-13T04:27:56;97360.00;;;3.00
54746;BMP180;40640;48.130;11.356;2023-02-13T04:32:00;97362.00;;;3.20
54746;BMP180;40640;48.130;11.356;2023-02-13T04:36:03;97361.00;;;3.20
54746;BMP180;40640;48.130;11.356;2023-02-13T04:40:07;97354.00;;;3.10
54746;BMP180;40640;48.130;11.356;2023-02-13T04:44:10;97363.00;;;3.10
54746;BMP180;40640;48.130;11.356;2023-02-13T04:48:14;97360.00;;;3.20
54746;BMP180;40640;48.130;11.356;2023-02-13T04:52:17;97359.00;;;3.50
54746;BMP180;40640;48.130;11.356;2023-02-13T04:56:20;97357.00;;;3.50
54746;BMP180;40640;48.130;11.356;2023-02-13T05:00:24;97358.00;;;4.00
54746;BMP180;40640;48.130;11.356;2023-02-13T05:04:29;97366.00;;;4.10
54746;BMP180;40640;48.130;11.356;2023-02-13T05:08:31;97361.00;;;3.60
54746;BMP180;40640;48.130;11.356;2023-02-13T05:12:34;97363.00;;;3.30
54746;BMP180;40640;48.130;11.356;2023-02-13T05:16:37;97359.00;;;3.50
54746;BMP180;40640;48.130;11.356;2023-02-13T05:20:41;97368.00;;;3.40
54746;BMP180;40640;48.130;11.356;2023-02-13T05:24:44;97355.00;;;3.30
54746;BMP180;40640;48.130;11.356;2023-02-13T05:28:46;97357.00;;;3.20
54746;BMP180;40640;48.130;11.356;2023-02-13T05:33:07;97362.00;;;3.30
54746;BMP180;40640;48.130;11.356;2023-02-13T05:37:11;97361.00;;;3.00
54746;BMP180;40640;48.130;11.356;2023-02-13T05:41:13;97367.00;;;3.20
54746;BMP180;40640;48.130;11.356;2023-02-13T05:45:16;97382.00;;;3.60
54746;BMP180;40640;48.130;11.356;2023-02-13T05:49:19;97377.00;;;3.50
54746;BMP180;40640;48.130;11.356;2023-02-13T05:53:24;97378.00;;;3.50
54746;BMP180;40640;48.130;11.356;2023-02-13T05:57:27;97379.00;;;3.60
54746;BMP180;40640;48.130;11.356;2023-02-13T06:01:30;97380.00;;;3.30
54746;BMP180;40640;48.130;11.356;2023-02-13T06:05:33;97374.00;;;3.30
54746;BMP180;40640;48.130;11.356;2023-02-13T06:09:37;97376.00;;;3.30
54746;BMP180;40640;48.130;11.356;2023-02-13T06:13:40;97394.00;;;3.30
54746;BMP180;40640;48.130;11.356;2023-02-13T06:17:43;97384.00;;;3.50
54746;BMP180;40640;48.130;11.356;2023-02-13T06:21:45;97403.00;;;3.30
54746;BMP180;40640;48.130;11.356;2023-02-13T06:25:49;97399.00;;;3.40
54746;BMP180;40640;48.130;11.356;2023-02-13T06:29:52;97394.00;;;3.50
54746;BMP180;40640;48.130;11.356;2023-02-13T06:33:55;97404.00;;;3.50
54746;BMP180;40640;48.130;11.356;2023-02-13T06:37:58;97401.00;;;3.40
54746;BMP180;40640;48.130;11.356;2023-02-13T06:42:02;97409.00;;;3.40
54746;BMP180;40640;48.130;11.356;2023-02-13T06:46:05;97407.00;;;3.40
54746;BMP180;40640;48.130;11.356;2023-02-13T06:50:09;97405.00;;;3.30
54746;BMP180;40640;48.130;11.356;2023-02-13T06:54:12;97410.00;;;3.40
54746;BMP180;40640;48.130;11.356;2023-02-13T06:58:16;97417.00;;;3.40
54746;BMP180;40640;48.130;11.356;2023-02-13T07:02:20;97423.00;;;3.40
54746;BMP180;40640;48.130;11.356;2023-02-13T07:06:23;97423.00;;;3.50
54746;BMP180;40640;48.130;11.356;2023-02-13T07:10:26;97427.00;;;3.50
54746;BMP180;40640;48.130;11.356;2023-02-13T07:14:31;97439.00;;;3.60
54746;BMP180;40640;48.130;11.356;2023-02-13T07:18:34;97443.00;;;3.70
54746;BMP180;40640;48.130;11.356;2023-02-13T07:22:39;97441.00;;;3.90
54746;BMP180;40640;48.130;11.356;2023-02-13T07:26:41;97445.00;;;4.00
54746;BMP180;40640;48.130;11.356;2023-02-13T07:30:46;97448.00;;;4.00
54746;BMP180;40640;48.130;11.356;2023-02-13T07:34:49;97446.00;;;3.90
54746;BMP180;40640;48.130;11.356;2023-02-13T07:39:02;97457.00;;;4.10
54746;BMP180;40640;48.130;11.356;2023-02-13T07:43:05;97448.00;;;3.90
54746;BMP180;40640;48.130;11.356;2023-02-13T07:47:09;97451.00;;;3.70
54746;BMP180;40640;48.130;11.356;2023-02-13T07:51:12;97449.00;;;3.80
54746;BMP180;40640;48.130;11.356;2023-02-13T07:55:15;97462.00;;;3.80
54746;BMP180;40640;48.130;11.356;2023-02-13T07:59:18;97469.00;;;3.90
54746;BMP180;40640;48.130;11.356;2023-02-13T08:03:22;97466.00;;;4.00
54746;BMP180;40640;48.130;11.356;2023-02-13T08:07:25;97485.00;;;4.10
54746;BMP180;40640;48.130;11.356;2023-02-13T08:11:30;97480.00;;;4.10
54746;BMP180;40640;48.130;11.356;2023-02-13T08:15:51;97472.00;;;4.00
54746;BMP180;40640;48.130;11.356;2023-02-13T08:19:56;97470.00;;;4.10
54746;BMP180;40640;48.130;11.356;2023-02-13T08:23:59;97481.00;;;4.10
54746;BMP180;40640;48.130;11.356;2023-02-13T08:28:02;97480.00;;;4.30
54746;BMP180;40640;48.130;11.356;2023-02-13T08:32:05;97472.00;;;4.30
54746;BMP180;40640;48.130;11.356;2023-02-13T08:36:09;97485.00;;;4.40
54746;BMP180;40640;48.130;11.356;2023-02-13T08:40:12;97478.00;;;4.50
54746;BMP180;40640;48.130;11.356;2023-02-13T08:44:15;97476.00;;;4.30
54746;BMP180;40640;48.130;11.356;2023-02-13T08:48:18;97473.00;;;4.30
54746;BMP180;40640;48.130;11.356;2023-02-13T08:52:22;97467.00;;;4.30
54746;BMP180;40640;48.130;11.356;2023-02-13T08:56:25;97468.00;;;4.20
54746;BMP180;40640;48.130;11.356;2023-02-13T09:00:28;97468.00;;;3.80
54746;BMP180;40640;48.130;11.356;2023-02-13T09:04:31;97477.00;;;4.20
54746;BMP180;40640;48.130;11.356;2023-02-13T09:08:36;97480.00;;;4.20
54746;BMP180;40640;48.130;11.356;2023-02-13T09:12:39;97481.00;;;4.30
54746;BMP180;40640;48.130;11.356;2023-02-13T09:16:42;97494.00;;;4.50
54746;BMP180;40640;48.130;11.356;2023-02-13T09:20:45;97490.00;;;4.60
54746;BMP180;40640;48.130;11.356;2023-02-13T09:24:49;97499.00;;;4.80
54746;BMP180;40640;48.130;11.356;2023-02-13T09:28:52;97502.00;;;4.60
54746;BMP180;40640;48.130;11.356;2023-02-13T09:32:54;97496.00;;;4.60
54746;BMP180;40640;48.130;11.356;2023-02-13T09:36:57;97496.00;;;4.40
54746;BMP180;40640;48.130;11.356;2023-02-13T09:41:04;97495.00;;;4.50
54746;BMP180;40640;48.130;11.356;2023-02-13T09:45:11;97494.00;;;4.30
54746;BMP180;40640;48.130;11.356;2023-02-13T09:49:18;97487.00;;;4.50
54746;BMP180;40640;48.130;11.356;2023-02-13T09:53:23;97483.00;;;4.50
54746;BMP180;40640;48.130;11.356;2023-02-13T09:57:30;97487.00;;;4.60
54746;BMP180;40640;48.130;11.356;2023-02-13T10:01:38;97490.00;;;4.60
54746;BMP180;40640;48.130;11.356;2023-02-13T10:05:46;97495.00;;;4.90
54746;BMP180;40640;48.130;11.356;2023-02-13T10:09:59;97495.00;;;4.90
54746;BMP180;40640;48.130;11.356;2023-02-13T10:14:10;97492.00;;;4.80
54746;BMP180;40640;48.130;11.356;2023-02-13T10:18:16;97498.00;;;4.90
54746;BMP180;40640;48.130;11.356;2023-02-13T10:22:25;97478.00;;;4.80
54746;BMP180;40640;48.130;11.356;2023-02-13T10:26:32;97492.00;;;4.80
54746;BMP180;40640;48.130;11.356;2023-02-13T10:30:49;97488.00;;;4.80
54746;BMP180;40640;48.130;11.356;2023-02-13T10:34:54;97491.00;;;4.70
54746;BMP180;40640;48.130;11.356;2023-02-13T10:39:00;97483.00;;;4.40
54746;BMP180;40640;48.130;11.356;2023-02-13T10:43:07;97482.00;;;4.70
54746;BMP180;40640;48.130;11.356;2023-02-13T10:47:21;97485.00;;;5.00
54746;BMP180;40640;48.130;11.356;2023-02-13T10:51:32;97486.00;;;5.20
54746;BMP180;40640;48.130;11.356;2023-02-13T10:56:01;97479.00;;;5.30
54746;BMP180;40640;48.130;11.356;2023-02-13T11:00:13;97476.00;;;5.30
54746;BMP180;40640;48.130;11.356;2023-02-13T11:04:21;97470.00;;;5.50
54746;BMP180;40640;48.130;11.356;2023-02-13T11:08:32;97466.00;;;5.50
54746;BMP180;40640;48.130;11.356;2023-02-13T11:12:36;97464.00;;;5.60
54746;BMP180;40640;48.130;11.356;2023-02-13T11:16:47;97463.00;;;5.70
54746;BMP180;40640;48.130;11.356;2023-02-13T11:21:09;97462.00;;;5.90
54746;BMP180;40640;48.130;11.356;2023-02-13T11:25:17;97458.00;;;5.80
54746;BMP180;40640;48.130;11.356;2023-02-13T11:29:23;97457.00;;;5.30
54746;BMP180;40640;48.130;11.356;2023-02-13T11:33:27;97452.00;;;5.40
54746;BMP180;40640;48.130;11.356;2023-02-13T11:37:31;97453.00;;;5.50
54746;BMP180;40640;48.130;11.356;2023-02-13T11:41:38;97457.00;;;5.60
54746;BMP180;40640;48.130;11.356;2023-02-13T11:45:42;97455.00;;;5.80
54746;BMP180;40640;48.130;11.356;2023-02-13T11:49:46;97454.00;;;5.80
54746;BMP180;40640;48.130;11.356;2023-02-13T11:53:51;97457.00;;;5.60
54746;BMP180;40640;48.130;11.356;2023-02-13T11:58:00;97459.00;;;5.80
54746;BMP180;40640;48.130;11.356;2023-02-13T12:02:13;97459.00;;;6.00
54746;BMP180;40640;48.130;11.356;2023-02-13T12:06:16;97461.00;;;5.80
54746;BMP180;40640;48.130;11.356;2023-02-13T12:10:22;97445.00;;;5.50
54746;BMP180;40640;48.130;11.356;2023-02-13T12:14:29;97444.00;;;5.70
54746;BMP180;40640;48.130;11.356;2023-02-13T12:18:35;97449.00;;;5.80
54746;BMP180;40640;48.130;11.356;2023-02-13T12:22:51;97446.00;;;6.10
54746;BMP180;40640;48.130;11.356;2023-02-13T12:27:02;97446.00;;;6.30
54746;BMP180;40640;48.130;11.356;2023-02-13T12:31:25;97446.00;;;6.00
54746;BMP180;40640;48.130;11.356;2023-02-13T12:35:45;97434.00;;;6.00
54746;BMP180;40640;48.130;11.356;2023-02-13T12:40:02;97419.00;;;5.80
54746;BMP180;40640;48.130;11.356;2023-02-13T12:44:42;97428.00;;;5.60
54746;BMP180;40640;48.130;11.356;2023-02-13T12:48:57;97415.00;;;5.60
54746;BMP180;40640;48.130;11.356;2023-02-13T12:53:15;97404.00;;;6.20
54746;BMP180;40640;48.130;11.356;2023-02-13T12:57:32;97413.00;;;6.50
54746;BMP180;40640;48.130;11.356;2023-02-13T13:06:28;97406.00;;;7.00
54746;BMP180;40640;48.130;11.356;2023-02-13T13:14:54;97408.00;;;6.10
54746;BMP180;40640;48.130;11.356;2023-02-13T13:19:06;97413.00;;;6.10
54746;BMP180;40640;48.130;11.356;2023-02-13T13:23:17;97402.00;;;6.40
54746;BMP180;40640;48.130;11.356;2023-02-13T13:27:24;97408.00;;;6.60
54746;BMP180;40640;48.130;11.356;2023-02-13T13:31:29;97423.00;;;6.80
54746;BMP180;40640;48.130;11.356;2023-02-13T13:35:33;97416.00;;;6.60
54746;BMP180;40640;48.130;11.356;2023-02-13T13:39:55;97413.00;;;6.80
54746;BMP180;40640;48.130;11.356;2023-02-13T13:44:13;97419.00;;;6.90
54746;BMP180;40640;48.130;11.356;2023-02-13T13:53:09;97409.00;;;7.40
54746;BMP180;40640;48.130;11.356;2023-02-13T13:57:13;97409.00;;;7.50
54746;BMP180;40640;48.130;11.356;2023-02-13T14:01:19;97411.00;;;7.60
54746;BMP180;40640;48.130;11.356;2023-02-13T14:05:28;97416.00;;;7.80
54746;BMP180;40640;48.130;11.356;2023-02-13T14:09:39;97409.00;;;7.70
54746;BMP180;40640;48.130;11.356;2023-02-13T14:13:43;97419.00;;;7.60
54746;BMP180;40640;48.130;11.356;2023-02-13T14:17:52;97419.00;;;7.70
54746;BMP180;40640;48.130;11.356;2023-02-13T14:22:26;97415.00;;;7.90
54746;BMP180;40640;48.130;11.356;2023-02-13T14:26:37;97414.00;;;7.80
54746;BMP180;40640;48.130;11.356;2023-02-13T14:30:42;97408.00;;;7.90
54746;BMP180;40640;48.130;11.356;2023-02-13T14:34:57;97412.00;;;8.00
54746;BMP180;40640;48.130;11.356;2023-02-13T14:39:03;97397.00;;;8.10
54746;BMP180;40640;48.130;11.356;2023-02-13T14:43:28;97408.00;;;8.20
54746;BMP180;40640;48.130;11.356;2023-02-13T14:47:36;97404.00;;;8.20
54746;BMP180;40640;48.130;11.356;2023-02-13T14:51:45;97411.00;;;8.30
54746;BMP180;40640;48.130;11.356;2023-02-13T14:55:52;97416.00;;;8.30
54746;BMP180;40640;48.130;11.356;2023-02-13T14:59:58;97411.00;;;8.50
54746;BMP180;40640;48.130;11.356;2023-02-13T15:04:09;97406.00;;;8.30
54746;BMP180;40640;48.130;11.356;2023-02-13T15:08:15;97407.00;;;8.30
54746;BMP180;40640;48.130;11.356;2023-02-13T15:12:25;97406.00;;;8.40
54746;BMP180;40640;48.130;11.356;2023-02-13T15:16:29;97396.00;;;8.20
54746;BMP180;40640;48.130;11.356;2023-02-13T15:20:34;97404.00;;;8.10
54746;BMP180;40640;48.130;11.356;2023-02-13T15:24:42;97398.00;;;7.90
54746;BMP180;40640;48.130;11.356;2023-02-13T15:28:57;97398.00;;;7.90
54746;BMP180;40640;48.130;11.356;2023-02-13T15:33:02;97397.00;;;7.80
54746;BMP180;40640;48.130;11.356;2023-02-13T15:37:19;97393.00;;;7.60
54746;BMP180;40640;48.130;11.356;2023-02-13T15:41:31;97394.00;;;7.40
54746;BMP180;40640;48.130;11.356;2023-02-13T15:45:35;97398.00;;;7.20
54746;BMP180;40640;48.130;11.356;2023-02-13T15:49:41;97381.00;;;7.10
54746;BMP180;40640;48.130;11.356;2023-02-13T15:53:50;97380.00;;;6.90
54746;BMP180;40640;48.130;11.356;2023-02-13T15:57:56;97391.00;;;6.80
54746;BMP180;40640;48.130;11.356;2023-02-13T16:01:59;97389.00;;;6.70
54746;BMP180;40640;48.130;11.356;2023-02-13T16:06:04;97390.00;;;6.60
54746;BMP180;40640;48.130;11.356;2023-02-13T16:10:17;97390.00;;;6.60
54746;BMP180;40640;48.130;11.356;2023-02-13T16:14:21;97373.00;;;6.30
54746;BMP180;40640;48.130;11.356;2023-02-13T16:18:25;97379.00;;;6.20
54746;BMP180;40640;48.130;11.356;2023-02-13T16:22:32;97389.00;;;6.20
54746;BMP180;40640;48.130;11.356;2023-02-13T16:26:36;97397.00;;;6.10
54746;BMP180;40640;48.130;11.356;2023-02-13T16:30:44;97400.00;;;5.90
54746;BMP180;40640;48.130;11.356;2023-02-13T16:34:48;97394.00;;;5.70
54746;BMP180;40640;48.130;11.356;2023-02-13T16:38:52;97404.00;;;5.70
54746;BMP180;40640;48.130;11.356;2023-02-13T16:47:32;97405.00;;;5.40
54746;BMP180;40640;48.130;11.356;2023-02-13T16:51:44;97420.00;;;5.30
54746;BMP180;40640;48.130;11.356;2023-02-13T16:55:55;97418.00;;;5.30
54746;BMP180;40640;48.130;11.356;2023-02-13T17:00:05;97412.00;;;5.20
54746;BMP180;40640;48.130;11.356;2023-02-13T17:04:18;97406.00;;;5.10
54746;BMP180;40640;48.130;11.356;2023-02-13T17:08:22;97406.00;;;5.10
54746;BMP180;40640;48.130;11.356;2023-02-13T17:12:26;97405.00;;;5.20
54746;BMP180;40640;48.130;11.356;2023-02-13T17:16:29;97401.00;;;5.20
54746;BMP180;40640;48.130;11.356;2023-02-13T17:20:34;97405.00;;;5.20
54746;BMP180;40640;48.130;11.356;2023-02-13T17:24:37;97414.00;;;5.30
54746;BMP180;40640;48.130;11.356;2023-02-13T17:28:40;97416.00;;;5.20
54746;BMP180;40640;48.130;11.356;2023-02-13T17:32:44;97422.00;;;5.20
54746;BMP180;40640;48.130;11.356;2023-02-13T17:36:48;97421.00;;;5.20
54746;BMP180;40640;48.130;11.356;2023-02-13T17:40:51;97415.00;;;5.20
54746;BMP180;40640;48.130;11.356;2023-02-13T17:44:55;97418.00;;;5.20
54746;BMP180;40640;48.130;11.356;2023-02-13T17:48:58;97419.00;;;5.30
54746;BMP180;40640;48.130;11.356;2023-02-13T17:53:04;97410.00;;;5.30
54746;BMP180;40640;48.130;11.356;2023-02-13T17:57:09;97419.00;;;5.30
54746;BMP180;40640;48.130;11.356;2023-02-13T18:01:11;97410.00;;;5.30
54746;BMP180;40640;48.130;11.356;2023-02-13T18:05:15;97402.00;;;5.30
54746;BMP180;40640;48.130;11.356;2023-02-13T18:09:20;97398.00;;;5.30
54746;BMP180;40640;48.130;11.356;2023-02-13T18:13:23;97400.00;;;5.30
54746;BMP180;40640;48.130;11.356;2023-02-13T18:17:26;97412.00;;;5.10
54746;BMP180;40640;48.130;11.356;2023-02-13T18:21:29;97397.00;;;4.90
54746;BMP180;40640;48.130;11.356;2023-02-13T18:25:34;97404.00;;;4.70
54746;BMP180;40640;48.130;11.356;2023-02-13T18:29:37;97402.00;;;4.60
54746;BMP180;40640;48.130;11.356;2023-02-13T18:33:40;97398.00;;;4.60
54746;BMP180;40640;48.130;11.356;2023-02-13T18:37:43;97401.00;;;4.70
54746;BMP180;40640;48.130;11.356;2023-02-13T18:41:47;97401.00;;;4.70
54746;BMP180;40640;48.130;11.356;2023-02-13T18:45:50;97399.00;;;4.40
54746;BMP180;40640;48.130;11.356;2023-02-13T18:49:53;97401.00;;;4.50
54746;BMP180;40640;48.130;11.356;2023-02-13T18:53:56;97383.00;;;4.70
54746;BMP180;40640;48.130;11.356;2023-02-13T18:58:01;97399.00;;;4.80
54746;BMP180;40640;48.130;11.356;2023-02-13T19:02:04;97397.00;;;4.80
54746;BMP180;40640;48.130;11.356;2023-02-13T19:06:08;97395.00;;;4.70
54746;BMP180;40640;48.130;11.356;2023-02-13T19:10:11;97395.00;;;4.40
54746;BMP180;40640;48.130;11.356;2023-02-13T19:14:16;97396.00;;;4.40
54746;BMP180;40640;48.130;11.356;2023-02-13T19:18:19;97397.00;;;4.40
54746;BMP180;40640;48.130;11.356;2023-02-13T19:22:22;97394.00;;;4.40
54746;BMP180;40640;48.130;11.356;2023-02-13T19:26:26;97392.00;;;4.40
54746;BMP180;40640;48.130;11.356;2023-02-13T19:30:30;97405.00;;;4.40
54746;BMP180;40640;48.130;11.356;2023-02-13T19:34:33;97399.00;;;4.10
54746;BMP180;40640;48.130;11.356;2023-02-13T19:38:37;97402.00;;;4.10
54746;BMP180;40640;48.130;11.356;2023-02-13T19:42:39;97402.00;;;4.30
54746;BMP180;40640;48.130;11.356;2023-02-13T19:46:44;97398.00;;;4.00
54746;BMP180;40640;48.130;11.356;2023-02-13T19:50:47;97398.00;;;4.00
54746;BMP180;40640;48.130;11.356;2023-02-13T19:54:50;97398.00;;;3.90
54746;BMP180;40640;48.130;11.356;2023-02-13T19:58:54;97389.00;;;3.90
54746;BMP180;40640;48.130;11.356;2023-02-13T20:03:02;97394.00;;;4.10
54746;BMP180;40640;48.130;11.356;2023-02-13T20:07:05;97391.00;;;4.10
54746;BMP180;40640;48.130;11.356;2023-02-13T20:11:10;97386.00;;;4.30
54746;BMP180;40640;48.130;11.356;2023-02-13T20:15:13;97401.00;;;4.20
54746;BMP180;40640;48.130;11.356;2023-02-13T20:19:17;97394.00;;;4.40
54746;BMP180;40640;48.130;11.356;2023-02-13T20:23:20;97409.00;;;4.50
54746;BMP180;40640;48.130;11.356;2023-02-13T20:27:22;97396.00;;;4.50
54746;BMP180;40640;48.130;11.356;2023-02-13T20:31:27;97406.00;;;4.50
54746;BMP180;40640;48.130;11.356;2023-02-13T20:35:32;97400.00;;;4.50
54746;BMP180;40640;48.130;11.356;2023-02-13T20:39:35;97401.00;;;4.40
54746;BMP180;40640;48.130;11.356;2023-02-13T20:43:38;97397.00;;;4.30
54746;BMP180;40640;48.130;11.356;2023-02-13T20:47:40;97393.00;;;4.30
54746;BMP180;40640;48.130;11.356;2023-02-13T20:51:45;97398.00;;;4.30
54746;BMP180;40640;48.130;11.356;2023-02-13T20:55:48;97393.00;;;4.20
54746;BMP180;40640;48.130;11.356;2023-02-13T20:59:50;97397.00;;;4.40
54746;BMP180;40640;48.130;11.356;2023-02-13T21:03:55;97386.00;;;3.90
54746;BMP180;40640;48.130;11.356;2023-02-13T21:07:59;97390.00;;;4.00
54746;BMP180;40640;48.130;11.356;2023-02-13T21:12:03;97391.00;;;3.80
54746;BMP180;40640;48.130;11.356;2023-02-13T21:16:08;97395.00;;;3.90
54746;BMP180;40640;48.130;11.356;2023-02-13T21:20:11;97385.00;;;3.90
54746;BMP180;40640;48.130;11.356;2023-02-13T21:24:17;97394.00;;;4.00
54746;BMP180;40640;48.130;11.356;2023-02-13T21:28:21;97384.00;;;4.10
54746;BMP180;40640;48.130;11.356;2023-02-13T21:32:24;97387.00;;;4.10
54746;BMP180;40640;48.130;11.356;2023-02-13T21:36:27;97385.00;;;3.80
54746;BMP180;40640;48.130;11.356;2023-02-13T21:40:31;97377.00;;;3.50
54746;BMP180;40640;48.130;11.356;2023-02-13T21:44:34;97373.00;;;3.40
54746;BMP180;40640;48.130;11.356;2023-02-13T21:48:38;97369.00;;;3.40
54746;BMP180;40640;48.130;11.356;2023-02-13T21:52:41;97354.00;;;3.50
54746;BMP180;40640;48.130;11.356;2023-02-13T21:56:45;97357.00;;;3.70
54746;BMP180;40640;48.130;11.356;2023-02-13T22:00:47;97352.00;;;3.80
54746;BMP180;40640;48.130;11.356;2023-02-13T22:04:50;97348.00;;;3.80
54746;BMP180;40640;48.130;11.356;2023-02-13T22:08:57;97344.00;;;3.80
54746;BMP180;40640;48.130;11.356;2023-02-13T22:13:01;97350.00;;;3.40
54746;BMP180;40640;48.130;11.356;2023-02-13T22:17:04;97337.00;;;3.30
54746;BMP180;40640;48.130;11.356;2023-02-13T22:21:09;97340.00;;;3.30
54746;BMP180;40640;48.130;11.356;2023-02-13T22:25:13;97341.00;;;3.20
54746;BMP180;40640;48.130;11.356;2023-02-13T22:29:18;97327.00;;;3.30
54746;BMP180;40640;48.130;11.356;2023-02-13T22:33:23;97324.00;;;3.40
54746;BMP180;40640;48.130;11.356;2023-02-13T22:37:26;97328.00;;;3.10
54746;BMP180;40640;48.130;11.356;2023-02-13T22:41:29;97324.00;;;3.20
54746;BMP180;40640;48.130;11.356;2023-02-13T22:45:34;97327.00;;;3.10
54746;BMP180;40640;48.130;11.356;2023-02-13T22:49:37;97324.00;;;3.20
54746;BMP180;40640;48.130;11.356;2023-02-13T22:53:40;97320.00;;;3.40
54746;BMP180;40640;48.130;11.356;2023-02-13T22:57:43;97329.00;;;3.20
54746;BMP180;40640;48.130;11.356;2023-02-13T23:01:48;97324.00;;;3.10
54746;BMP180;40640;48.130;11.356;2023-02-13T23:05:52;97322.00;;;3.20
54746;BMP180;40640;48.130;11.356;2023-02-13T23:09:55;97325.00;;;2.90
54746;BMP180;40640;48.130;11.356;2023-02-13T23:13:58;97323.00;;;2.90
54746;BMP180;40640;48.130;11.356;2023-02-13T23:18:03;97334.00;;;2.90
54746;BMP180;40640;48.130;11.356;2023-02-13T23:22:14;97319.00;;;3.10
54746;BMP180;40640;48.130;11.356;2023-02-13T23:26:17;97325.00;;;3.20
54746;BMP180;40640;48.130;11.356;2023-02-13T23:30:20;97333.00;;;3.20
54746;BMP180;40640;48.130;11.356;2023-02-13T23:34:25;97334.00;;;3.30
54746;BMP180;40640;48.130;11.356;2023-02-13T23:38:28;97338.00;;;3.20
54746;BMP180;40640;48.130;11.356;2023-02-13T23:42:31;97342.00;;;3.00
54746;BMP180;40640;48.130;11.356;2023-02-13T23:46:34;97335.00;;;3.10
54746;BMP180;40640;48.130;11.356;2023-02-13T23:50:38;97323.00;;;3.10
54746;BMP180;40640;48.130;11.356;2023-02-13T23:54:41;97328.00;;;3.10
54746;BMP180;40640;48.130;11.356;2023-02-13T23:58:44;97315.00;;;3.20
